Time;durP1;ratioP1;P1;durP2;ratioP2;P2;SDS_P1;SDS_P2;PMS_P1;PMS_P2;Temp;Humidity;BMP_temperature;BMP_pressure;BME280_temperature;BME280_humidity;BME280_pressure;Samples;Min_cycle;Max_cycle;Signal;HPM_P1;HPM_P2
2021/12/20 00:01:06;;;;;;;52.93;29.53;;;4.00;92.70;;;;;;5016718;28;20212;-70
2021/12/20 00:03:34;;;;;;;60.63;28.97;;;4.00;92.70;;;;;;5021691;28;20254;-70
2021/12/20 00:06:02;;;;;;;52.57;28.70;;;4.00;92.60;;;;;;5025476;28;20243;-70
2021/12/20 00:08:29;;;;;;;57.17;30.97;;;4.00;92.60;;;;;;5030977;28;20545;-70
2021/12/20 00:10:56;;;;;;;50.00;30.80;;;4.00;92.50;;;;;;5027292;28;20497;-70
2021/12/20 00:13:23;;;;;;;54.77;29.97;;;4.00;92.50;;;;;;5021028;28;20216;-70
2021/12/20 00:15:50;;;;;;;59.20;29.83;;;4.00;92.40;;;;;;5024654;28;20610;-70
2021/12/20 00:18:17;;;;;;;54.27;29.60;;;4.00;92.40;;;;;;5017095;28;20276;-70
2021/12/20 00:20:44;;;;;;;55.80;30.67;;;4.00;92.40;;;;;;4998091;28;20223;-69
2021/12/20 00:23:11;;;;;;;66.73;31.43;;;3.90;92.40;;;;;;5003811;28;20551;-69
2021/12/20 00:25:38;;;;;;;58.03;32.40;;;3.90;92.50;;;;;;5008188;28;20236;-69
2021/12/20 00:28:05;;;;;;;53.63;30.87;;;3.90;92.40;;;;;;5029453;28;20207;-69
2021/12/20 00:30:33;;;;;;;56.43;31.43;;;3.90;92.40;;;;;;5030199;28;20224;-69
2021/12/20 00:33:00;;;;;;;53.40;31.73;;;3.90;92.40;;;;;;5027214;28;20818;-69
2021/12/20 00:35:27;;;;;;;64.70;32.80;;;3.90;92.50;;;;;;5021676;28;20650;-70
2021/12/20 00:40:39;;;;;;;59.97;34.20;;;3.90;92.50;;;;;;5029886;28;20324;-70
2021/12/20 00:43:07;;;;;;;62.00;34.43;;;3.90;92.50;;;;;;4999487;28;20216;-70
2021/12/20 00:45:37;;;;;;;62.27;34.37;;;3.90;92.50;;;;;;5022244;28;20235;-70
2021/12/20 00:48:05;;;;;;;65.93;34.57;;;3.90;92.50;;;;;;5026238;28;20228;-70
2021/12/20 00:50:38;;;;;;;71.47;34.97;;;3.90;92.50;;;;;;5012861;28;20208;-70
2021/12/20 00:53:05;;;;;;;62.67;33.23;;;3.90;92.50;;;;;;5015541;28;20204;-70
2021/12/20 00:55:32;;;;;;;58.33;33.67;;;3.90;92.50;;;;;;5020089;28;20219;-70
2021/12/20 00:58:00;;;;;;;66.37;35.13;;;3.90;92.60;;;;;;5025994;28;20311;-70
2021/12/20 01:00:31;;;;;;;61.33;35.30;;;3.90;92.60;;;;;;5012304;28;20224;-70
2021/12/20 01:02:59;;;;;;;67.07;35.80;;;3.90;92.60;;;;;;5027442;28;20215;-70
2021/12/20 01:05:27;;;;;;;65.40;33.80;;;3.90;92.70;;;;;;5005605;28;20249;-70
2021/12/20 01:07:58;;;;;;;59.83;32.73;;;3.90;92.70;;;;;;5024685;28;20644;-70
2021/12/20 01:10:28;;;;;;;63.80;34.63;;;3.90;92.70;;;;;;5024920;28;20693;-70
2021/12/20 01:12:59;;;;;;;63.40;35.43;;;3.90;92.70;;;;;;5014677;28;20218;-70
2021/12/20 01:15:31;;;;;;;53.97;33.87;;;3.90;92.70;;;;;;5017812;28;20215;-70
2021/12/20 01:17:59;;;;;;;59.13;34.97;;;3.90;92.80;;;;;;5024571;28;20222;-70
2021/12/20 01:20:26;;;;;;;62.97;35.17;;;4.00;92.90;;;;;;5014923;28;20216;-70
2021/12/20 01:22:54;;;;;;;54.93;33.13;;;3.90;92.90;;;;;;5012766;28;20216;-70
2021/12/20 01:25:22;;;;;;;58.90;32.63;;;4.00;92.90;;;;;;5000562;28;20280;-70
2021/12/20 01:27:50;;;;;;;60.30;34.57;;;4.00;92.90;;;;;;5022663;28;20217;-70
2021/12/20 01:30:20;;;;;;;59.20;34.07;;;4.00;92.90;;;;;;5024024;28;20680;-70
2021/12/20 01:32:47;;;;;;;58.03;33.93;;;4.00;92.80;;;;;;5024979;28;20201;-70
2021/12/20 01:35:15;;;;;;;62.83;34.70;;;3.90;92.80;;;;;;5018674;28;20220;-70
2021/12/20 01:37:43;;;;;;;62.50;34.13;;;3.90;92.70;;;;;;5010774;28;20230;-70
2021/12/20 01:40:13;;;;;;;55.90;33.67;;;3.90;92.70;;;;;;5007571;28;20793;-70
2021/12/20 01:42:41;;;;;;;62.03;34.93;;;3.80;92.60;;;;;;5017861;28;20239;-70
2021/12/20 01:45:18;;;;;;;61.20;32.67;;;3.80;92.70;;;;;;5023285;28;20555;-70
2021/12/20 01:47:50;;;;;;;64.73;36.60;;;3.80;92.70;;;;;;5019140;28;20529;-70
2021/12/20 01:51:17;;;;;;;63.23;36.70;;;3.80;92.80;;;;;;4996721;28;20210;-70
2021/12/20 01:53:18;;;;;;;62.57;34.87;;;3.80;92.90;;;;;;4990014;28;20216;-70
2021/12/20 01:55:46;;;;;;;62.87;35.53;;;3.80;93.00;;;;;;5017536;28;20205;-70
2021/12/20 01:58:13;;;;;;;67.43;35.53;;;3.80;93.00;;;;;;5016969;28;20216;-70
2021/12/20 02:01:01;;;;;;;62.17;37.97;;;3.90;93.00;;;;;;5002102;28;20700;-70
2021/12/20 02:03:29;;;;;;;61.73;35.23;;;3.80;93.00;;;;;;4995696;28;20245;-70
2021/12/20 02:05:59;;;;;;;69.83;37.57;;;3.80;93.00;;;;;;5013854;28;20239;-70
2021/12/20 02:08:29;;;;;;;64.83;37.10;;;3.80;93.00;;;;;;5035012;28;20319;-70
2021/12/20 02:11:00;;;;;;;58.90;35.27;;;3.80;93.00;;;;;;5036892;28;20215;-70
2021/12/20 02:13:28;;;;;;;62.53;37.43;;;3.80;92.90;;;;;;5027311;28;20208;-70
2021/12/20 02:16:00;;;;;;;63.10;37.87;;;3.80;93.00;;;;;;5021526;28;20221;-70
2021/12/20 02:18:28;;;;;;;63.13;36.23;;;3.80;93.00;;;;;;5019302;28;20306;-70
2021/12/20 02:20:56;;;;;;;56.73;36.00;;;3.70;93.00;;;;;;5014599;28;20214;-70
2021/12/20 02:23:24;;;;;;;59.97;36.70;;;3.70;93.00;;;;;;5024942;28;20556;-70
2021/12/20 02:25:51;;;;;;;64.00;37.90;;;3.70;93.00;;;;;;5027666;28;20714;-70
2021/12/20 02:28:20;;;;;;;65.50;37.00;;;3.70;93.00;;;;;;5016297;28;20226;-70
2021/12/20 02:36:57;;;;;;;62.10;36.37;;;3.70;93.00;;;;;;5035216;28;20524;-70
2021/12/20 02:38:55;;;;;;;66.60;37.63;;;3.60;93.00;;;;;;5019686;28;20232;-70
2021/12/20 02:41:29;;;;;;;66.10;39.47;;;3.60;93.00;;;;;;5017018;28;20232;-70
2021/12/20 02:44:04;;;;;;;63.97;39.97;;;3.50;93.00;;;;;;5028973;28;20207;-70
2021/12/20 02:49:15;;;;;;;68.83;38.57;;;3.50;93.00;;;;;;5026415;28;20216;-70
2021/12/20 02:51:44;;;;;;;67.57;39.80;;;3.50;93.10;;;;;;5013787;28;20205;-70
2021/12/20 02:54:16;;;;;;;60.00;38.67;;;3.40;93.00;;;;;;5025697;28;20653;-70
2021/12/20 02:56:44;;;;;;;75.37;41.67;;;3.40;93.10;;;;;;5022973;28;20617;-70
2021/12/20 02:59:12;;;;;;;63.53;37.83;;;3.40;93.10;;;;;;5036402;28;20229;-70
2021/12/20 03:01:42;;;;;;;67.87;39.43;;;3.40;93.00;;;;;;5015602;28;20214;-70
2021/12/20 03:04:09;;;;;;;70.13;40.13;;;3.40;93.10;;;;;;5026245;28;20272;-70
2021/12/20 03:06:41;;;;;;;68.03;40.43;;;3.40;93.10;;;;;;5028117;28;20252;-71
2021/12/20 03:09:13;;;;;;;66.47;38.40;;;3.30;93.10;;;;;;5018338;28;20212;-70
2021/12/20 03:11:41;;;;;;;62.77;39.80;;;3.30;93.10;;;;;;5022534;28;20212;-70
2021/12/20 03:14:23;;;;;;;69.80;42.77;;;3.30;93.10;;;;;;5015456;28;20484;-70
2021/12/20 03:16:50;;;;;;;70.80;41.83;;;3.30;93.10;;;;;;5019234;28;20216;-70
2021/12/20 03:19:18;;;;;;;67.30;41.27;;;3.30;93.10;;;;;;5020179;28;20241;-70
2021/12/20 03:21:45;;;;;;;66.03;40.87;;;3.30;93.10;;;;;;5022158;28;20212;-70
2021/12/20 03:24:12;;;;;;;67.87;40.27;;;3.20;93.10;;;;;;5025680;28;20210;-70
2021/12/20 03:26:39;;;;;;;69.53;41.63;;;3.20;93.20;;;;;;5017511;28;20660;-70
2021/12/20 03:29:07;;;;;;;59.47;39.70;;;3.20;93.20;;;;;;5033245;28;20551;-70
2021/12/20 03:31:34;;;;;;;69.90;42.43;;;3.20;93.20;;;;;;5037122;28;20209;-70
2021/12/20 03:34:02;;;;;;;68.57;40.63;;;3.10;93.20;;;;;;5027202;28;20553;-70
2021/12/20 03:36:29;;;;;;;72.10;43.60;;;3.10;93.20;;;;;;5030399;28;20216;-70
2021/12/20 03:38:56;;;;;;;66.07;42.13;;;3.10;93.20;;;;;;5027383;28;20216;-70
2021/12/20 03:41:24;;;;;;;68.03;42.93;;;3.20;93.30;;;;;;5022554;28;20312;-70
2021/12/20 03:43:51;;;;;;;73.53;42.60;;;3.10;93.30;;;;;;5017896;28;20217;-70
2021/12/20 03:46:18;;;;;;;68.30;41.93;;;3.10;93.30;;;;;;5028528;28;20237;-70
2021/12/20 03:48:45;;;;;;;72.10;42.90;;;3.10;93.30;;;;;;5033292;28;20212;-70
2021/12/20 03:51:13;;;;;;;75.00;43.17;;;3.10;93.30;;;;;;5023359;28;20237;-70
2021/12/20 03:53:40;;;;;;;65.20;42.23;;;3.10;93.30;;;;;;5018718;28;20233;-70
2021/12/20 03:56:07;;;;;;;70.23;42.57;;;3.10;93.30;;;;;;5012492;28;20222;-70
2021/12/20 03:58:34;;;;;;;79.30;43.00;;;3.10;93.30;;;;;;5029892;28;20220;-70
2021/12/20 04:01:06;;;;;;;75.47;42.77;;;3.10;93.30;;;;;;5040652;28;20227;-70
2021/12/20 04:03:35;;;;;;;67.17;43.80;;;3.10;93.40;;;;;;5023078;28;20236;-70
2021/12/20 04:06:05;;;;;;;72.90;44.20;;;3.10;93.30;;;;;;5027822;28;20228;-70
2021/12/20 04:08:33;;;;;;;68.10;43.63;;;3.10;93.30;;;;;;5028379;28;20227;-70
2021/12/20 04:11:01;;;;;;;66.97;40.67;;;3.10;93.30;;;;;;5024321;28;20214;-70
2021/12/20 04:13:29;;;;;;;74.63;42.83;;;3.10;93.30;;;;;;5003285;28;20291;-70
2021/12/20 04:15:56;;;;;;;77.87;43.10;;;3.10;93.30;;;;;;5015012;28;20221;-70
2021/12/20 04:18:24;;;;;;;66.13;41.10;;;3.00;93.50;;;;;;5010778;28;20239;-70
2021/12/20 04:20:52;;;;;;;66.90;41.60;;;3.00;93.30;;;;;;5020134;28;20853;-70
2021/12/20 04:23:19;;;;;;;69.57;41.50;;;3.00;93.30;;;;;;5019846;28;20580;-70
2021/12/20 04:25:47;;;;;;;74.93;43.30;;;3.00;93.30;;;;;;4999497;28;20239;-70
2021/12/20 04:28:14;;;;;;;66.37;41.40;;;3.00;93.30;;;;;;5011861;28;20226;-70
2021/12/20 04:30:41;;;;;;;68.90;41.97;;;3.00;93.40;;;;;;4998026;28;20526;-70
2021/12/20 04:33:08;;;;;;;61.63;40.37;;;3.00;93.40;;;;;;5019605;28;20618;-70
2021/12/20 04:35:35;;;;;;;65.70;40.40;;;3.00;93.40;;;;;;5015462;28;20562;-70
2021/12/20 04:38:03;;;;;;;75.40;42.73;;;3.00;93.40;;;;;;4994693;28;20231;-70
2021/12/20 04:40:30;;;;;;;64.33;40.50;;;3.00;93.40;;;;;;4998996;28;20212;-70
2021/12/20 04:42:59;;;;;;;67.67;41.47;;;3.00;93.40;;;;;;5018020;28;20654;-70
2021/12/20 04:45:28;;;;;;;70.27;42.23;;;3.00;93.40;;;;;;5017298;28;20208;-70
2021/12/20 04:47:56;;;;;;;80.30;42.87;;;3.00;93.40;;;;;;5009503;28;20208;-70
2021/12/20 04:50:25;;;;;;;65.80;42.77;;;2.90;93.30;;;;;;5010735;28;20580;-70
2021/12/20 04:52:54;;;;;;;57.93;37.57;;;3.00;93.40;;;;;;5023086;28;20393;-70
2021/12/20 04:55:23;;;;;;;68.13;43.37;;;3.00;93.40;;;;;;5022768;28;20559;-70
2021/12/20 04:57:50;;;;;;;66.13;40.23;;;3.00;93.40;;;;;;5013626;28;20221;-70
2021/12/20 05:00:22;;;;;;;64.87;40.70;;;3.00;93.40;;;;;;4994963;28;20211;-70
2021/12/20 05:02:49;;;;;;;67.50;42.23;;;3.00;93.40;;;;;;5016410;28;20208;-70
2021/12/20 05:05:17;;;;;;;65.60;40.03;;;3.00;93.30;;;;;;5020823;28;20287;-70
2021/12/20 05:07:45;;;;;;;70.93;40.93;;;2.90;93.30;;;;;;5025931;28;20238;-70
2021/12/20 05:10:24;;;;;;;68.37;41.53;;;2.90;93.30;;;;;;5011352;28;20224;-70
2021/12/20 05:12:56;;;;;;;66.30;39.23;;;2.90;93.30;;;;;;5023506;28;20212;-70
2021/12/20 05:15:25;;;;;;;70.27;40.87;;;2.90;93.30;;;;;;5010696;28;20215;-70
2021/12/20 05:17:54;;;;;;;59.73;39.17;;;2.90;93.30;;;;;;5014082;28;20603;-70
2021/12/20 05:20:21;;;;;;;58.57;37.47;;;2.90;93.20;;;;;;5010071;28;20829;-70
2021/12/20 05:22:49;;;;;;;68.30;40.17;;;2.80;93.20;;;;;;5014835;28;20212;-70
2021/12/20 05:25:16;;;;;;;57.73;38.90;;;2.80;93.10;;;;;;5016470;28;20647;-71
2021/12/20 05:27:44;;;;;;;64.17;39.63;;;2.80;93.10;;;;;;5016409;28;20236;-70
2021/12/20 05:30:15;;;;;;;63.93;41.57;;;2.70;93.10;;;;;;5025776;28;20211;-70
2021/12/20 05:32:43;;;;;;;65.63;41.20;;;2.70;93.10;;;;;;5014770;28;20237;-70
2021/12/20 05:35:12;;;;;;;73.20;42.03;;;2.70;93.10;;;;;;5019229;28;20289;-70
2021/12/20 05:37:39;;;;;;;69.73;43.23;;;2.70;93.10;;;;;;5004766;28;20221;-70
2021/12/20 05:40:09;;;;;;;76.03;43.13;;;2.70;93.10;;;;;;5015527;28;20235;-70
2021/12/20 05:42:36;;;;;;;70.97;44.60;;;2.60;93.10;;;;;;5015409;28;20217;-70
2021/12/20 05:45:05;;;;;;;68.57;42.60;;;2.60;93.10;;;;;;5019565;28;20620;-70
2021/12/20 05:47:32;;;;;;;65.20;42.43;;;2.60;93.10;;;;;;5004814;28;20600;-70
2021/12/20 05:49:59;;;;;;;69.27;43.80;;;2.70;93.10;;;;;;5009247;28;20211;-70
2021/12/20 05:52:26;;;;;;;73.17;43.03;;;2.60;93.10;;;;;;5009059;28;20299;-70
2021/12/20 05:54:53;;;;;;;64.47;41.33;;;2.60;93.10;;;;;;5005087;28;20210;-70
2021/12/20 05:57:20;;;;;;;68.20;41.57;;;2.60;93.10;;;;;;5017763;28;20220;-70
2021/12/20 05:59:47;;;;;;;68.10;42.40;;;2.60;93.00;;;;;;5012548;28;20216;-70
2021/12/20 06:02:15;;;;;;;71.87;41.60;;;2.50;93.00;;;;;;5009308;28;20411;-70
2021/12/20 06:04:42;;;;;;;66.07;40.80;;;2.60;93.20;;;;;;5015302;28;20237;-70
2021/12/20 06:07:09;;;;;;;68.67;41.43;;;2.50;93.20;;;;;;5019499;28;20235;-70
2021/12/20 06:09:36;;;;;;;66.23;40.67;;;2.50;93.20;;;;;;5020243;28;20680;-70
2021/12/20 06:12:04;;;;;;;68.30;40.43;;;2.50;93.20;;;;;;5010897;28;20208;-70
2021/12/20 06:14:31;;;;;;;66.67;40.67;;;2.50;93.10;;;;;;5023452;28;20698;-70
2021/12/20 06:16:58;;;;;;;65.27;41.10;;;2.50;93.10;;;;;;5002200;28;20219;-70
2021/12/20 06:19:26;;;;;;;62.60;40.43;;;2.40;93.00;;;;;;5014667;28;20307;-71
2021/12/20 06:21:54;;;;;;;71.40;44.07;;;2.40;93.00;;;;;;5024368;28;20243;-70
2021/12/20 06:24:23;;;;;;;69.40;41.70;;;2.40;93.00;;;;;;5013334;28;20217;-70
2021/12/20 06:26:51;;;;;;;60.53;38.80;;;2.30;93.00;;;;;;5016033;28;20249;-70
2021/12/20 06:29:19;;;;;;;64.70;41.47;;;2.30;93.00;;;;;;5022341;28;20208;-70
2021/12/20 06:31:46;;;;;;;68.57;41.83;;;2.30;93.00;;;;;;5026706;28;20218;-70
2021/12/20 06:34:14;;;;;;;71.93;45.03;;;2.30;93.00;;;;;;5008681;28;20223;-70
2021/12/20 06:36:42;;;;;;;65.37;41.43;;;2.20;93.00;;;;;;5020929;28;20215;-70
2021/12/20 06:39:09;;;;;;;68.20;43.77;;;2.20;93.00;;;;;;5022507;28;20305;-71
2021/12/20 06:41:37;;;;;;;70.73;41.73;;;2.10;93.40;;;;;;5020140;28;20219;-70
2021/12/20 06:44:04;;;;;;;69.57;42.53;;;2.10;93.10;;;;;;5014084;28;20219;-70
2021/12/20 06:46:37;;;;;;;63.77;39.30;;;2.20;93.20;;;;;;5018107;28;20223;-70
2021/12/20 06:49:11;;;;;;;72.43;41.97;;;2.20;93.20;;;;;;5024210;28;20649;-70
2021/12/20 06:51:43;;;;;;;66.90;40.93;;;2.10;93.00;;;;;;5029513;28;20205;-70
2021/12/20 06:54:12;;;;;;;67.07;40.47;;;2.10;93.10;;;;;;5028737;28;20208;-70
2021/12/20 06:56:43;;;;;;;66.73;41.20;;;2.10;93.20;;;;;;5011277;28;20211;-71
2021/12/20 06:59:10;;;;;;;58.97;39.27;;;2.00;93.30;;;;;;5012687;28;20219;-70
2021/12/20 07:01:38;;;;;;;60.40;39.90;;;2.10;93.30;;;;;;5028164;28;20230;-70
2021/12/20 07:04:05;;;;;;;61.50;39.10;;;2.10;93.20;;;;;;5021416;28;20339;-70
2021/12/20 07:06:34;;;;;;;64.77;41.27;;;2.10;93.10;;;;;;5026053;28;20227;-70
2021/12/20 07:09:01;;;;;;;58.07;38.60;;;2.10;93.10;;;;;;5021232;28;20282;-71
2021/12/20 07:11:28;;;;;;;62.40;39.53;;;2.10;93.10;;;;;;5035900;28;20211;-70
2021/12/20 07:13:56;;;;;;;65.63;40.87;;;2.10;93.10;;;;;;5013827;28;20214;-70
2021/12/20 07:16:23;;;;;;;68.20;40.30;;;2.10;93.10;;;;;;5015333;28;20723;-70
2021/12/20 07:18:51;;;;;;;66.73;41.20;;;2.10;93.10;;;;;;5019536;28;20212;-70
2021/12/20 07:21:18;;;;;;;71.50;41.80;;;2.10;93.10;;;;;;5033357;28;20212;-71
2021/12/20 07:23:45;;;;;;;70.83;44.43;;;2.10;93.10;;;;;;5013871;28;20223;-70
2021/12/20 07:26:13;;;;;;;72.30;41.47;;;2.20;93.20;;;;;;5014463;28;20401;-71
2021/12/20 07:28:42;;;;;;;62.47;38.23;;;2.20;93.40;;;;;;5035401;28;20259;-70
2021/12/20 07:31:14;;;;;;;61.90;39.70;;;2.20;93.10;;;;;;5020313;28;20571;-70
2021/12/20 07:33:42;;;;;;;62.27;38.40;;;2.30;93.10;;;;;;5045026;28;20211;-70
2021/12/20 07:36:09;;;;;;;70.87;41.73;;;2.30;93.10;;;;;;5044834;28;20200;-70
2021/12/20 07:38:37;;;;;;;62.30;40.13;;;2.30;93.10;;;;;;5024492;28;20222;-70
2021/12/20 07:41:04;;;;;;;60.13;38.40;;;2.40;93.00;;;;;;5029662;28;20232;-70
2021/12/20 07:43:31;;;;;;;71.67;42.00;;;2.40;93.00;;;;;;5021468;28;20205;-70
2021/12/20 07:45:58;;;;;;;61.63;39.27;;;2.50;93.00;;;;;;5012837;28;20203;-70
2021/12/20 07:48:26;;;;;;;61.33;39.87;;;2.50;93.00;;;;;;5017754;28;20253;-70
2021/12/20 07:50:53;;;;;;;76.97;43.93;;;2.60;92.90;;;;;;5021757;28;20676;-70
2021/12/20 07:53:20;;;;;;;78.17;45.43;;;2.60;92.40;;;;;;5023153;28;20212;-70
2021/12/20 07:55:47;;;;;;;66.13;41.63;;;2.60;92.60;;;;;;5015661;28;20239;-70
2021/12/20 07:58:14;;;;;;;59.50;39.00;;;2.70;92.70;;;;;;5016374;28;20557;-70
2021/12/20 08:00:42;;;;;;;59.87;36.17;;;2.70;92.70;;;;;;5020218;28;20218;-70
2021/12/20 08:03:09;;;;;;;53.33;35.17;;;2.60;92.30;;;;;;5025478;28;20270;-70
2021/12/20 08:05:37;;;;;;;46.33;30.47;;;2.60;92.10;;;;;;5012345;28;20223;-70
2021/12/20 08:08:05;;;;;;;41.93;28.27;;;2.50;91.80;;;;;;5014152;28;20232;-70
2021/12/20 08:10:32;;;;;;;60.43;29.63;;;2.30;91.10;;;;;;5001913;28;20220;-70
2021/12/20 08:12:59;;;;;;;47.30;32.00;;;2.10;90.80;;;;;;5000688;28;20228;-70
2021/12/20 08:15:27;;;;;;;46.07;31.17;;;1.80;91.10;;;;;;4995352;28;20212;-70
2021/12/20 08:17:56;;;;;;;60.77;35.03;;;1.60;92.00;;;;;;5014029;28;20655;-70
2021/12/20 08:20:24;;;;;;;67.67;36.87;;;1.50;92.30;;;;;;5019806;28;20217;-70
2021/12/20 08:22:52;;;;;;;64.73;35.60;;;1.40;92.90;;;;;;5018100;28;20242;-70
2021/12/20 08:25:19;;;;;;;95.17;30.17;;;1.40;93.70;;;;;;4998684;28;20209;-70
2021/12/20 08:27:48;;;;;;;59.47;29.63;;;1.40;93.90;;;;;;5011983;28;20232;-70
2021/12/20 08:30:15;;;;;;;68.87;33.07;;;1.40;93.70;;;;;;5017211;28;20214;-71
2021/12/20 08:32:42;;;;;;;92.40;34.77;;;1.40;93.70;;;;;;5022463;28;20653;-71
2021/12/20 08:35:12;;;;;;;99.40;34.63;;;1.30;93.90;;;;;;5016624;28;20306;-70
2021/12/20 08:37:39;;;;;;;61.43;32.53;;;1.30;94.20;;;;;;5013672;28;20221;-70
2021/12/20 08:40:10;;;;;;;99.57;32.03;;;1.40;94.40;;;;;;4993316;28;20649;-71
2021/12/20 08:42:39;;;;;;;87.77;30.43;;;1.40;94.50;;;;;;5019757;28;20400;-70
2021/12/20 08:45:08;;;;;;;84.33;28.40;;;1.40;94.50;;;;;;5006585;28;20222;-70
2021/12/20 08:47:36;;;;;;;50.87;28.27;;;1.50;94.70;;;;;;5027953;28;20231;-70
2021/12/20 08:50:07;;;;;;;78.83;32.10;;;1.50;94.90;;;;;;5024118;28;20207;-70
2021/12/20 08:52:35;;;;;;;77.30;28.03;;;1.50;94.90;;;;;;5019915;28;20574;-70
2021/12/20 08:55:04;;;;;;;63.93;29.03;;;1.60;94.90;;;;;;5025200;28;20314;-70
2021/12/20 08:57:31;;;;;;;71.37;25.47;;;1.70;95.00;;;;;;5027722;28;20231;-70
2021/12/20 08:59:58;;;;;;;60.27;23.90;;;1.70;95.00;;;;;;5025997;28;20212;-70
2021/12/20 09:02:25;;;;;;;76.97;26.70;;;1.70;95.00;;;;;;5003368;28;20220;-70
2021/12/20 09:04:52;;;;;;;71.67;24.13;;;1.80;95.20;;;;;;5018689;28;20237;-70
2021/12/20 09:07:19;;;;;;;94.80;25.87;;;1.80;95.30;;;;;;5027019;28;20242;-70
2021/12/20 09:09:47;;;;;;;61.30;22.83;;;1.80;95.40;;;;;;5027095;28;20243;-70
2021/12/20 09:12:18;;;;;;;70.43;19.40;;;1.80;95.40;;;;;;5020889;28;20222;-70
2021/12/20 09:14:46;;;;;;;70.43;21.70;;;1.90;95.50;;;;;;5021076;28;20221;-70
2021/12/20 09:17:14;;;;;;;67.70;24.30;;;1.90;95.40;;;;;;5026422;28;20211;-70
2021/12/20 09:19:42;;;;;;;50.33;21.53;;;1.90;95.50;;;;;;5018371;28;20270;-70
2021/12/20 09:22:11;;;;;;;75.90;22.70;;;1.90;95.50;;;;;;5016566;28;20211;-70
2021/12/20 09:24:40;;;;;;;77.57;23.47;;;2.00;95.60;;;;;;5018277;28;20543;-70
2021/12/20 09:27:08;;;;;;;61.40;21.80;;;2.00;95.50;;;;;;5024406;28;20295;-70
2021/12/20 09:29:36;;;;;;;67.27;22.20;;;2.00;95.50;;;;;;5024095;28;20203;-70
2021/12/20 09:32:04;;;;;;;49.93;22.30;;;2.00;95.60;;;;;;5022376;28;20642;-70
2021/12/20 09:34:31;;;;;;;49.70;21.93;;;2.00;95.70;;;;;;5019299;28;20223;-70
2021/12/20 09:37:04;;;;;;;53.13;22.03;;;2.00;95.80;;;;;;5015206;28;20222;-70
2021/12/20 09:39:32;;;;;;;59.47;21.50;;;2.10;95.90;;;;;;5010266;28;20211;-70
2021/12/20 09:42:00;;;;;;;52.27;24.33;;;2.20;96.00;;;;;;5032758;28;20227;-70
2021/12/20 09:44:27;;;;;;;50.53;23.83;;;2.20;96.10;;;;;;5034789;28;20583;-70
2021/12/20 09:46:59;;;;;;;58.67;23.67;;;2.30;96.10;;;;;;5014223;28;20237;-70
2021/12/20 09:49:28;;;;;;;52.23;23.30;;;2.30;96.10;;;;;;5010813;28;20244;-70
2021/12/20 09:51:57;;;;;;;70.80;23.77;;;2.40;96.20;;;;;;5029141;28;20535;-70
2021/12/20 09:54:26;;;;;;;82.83;24.17;;;2.50;96.20;;;;;;5017433;28;20215;-70
2021/12/20 09:56:54;;;;;;;71.03;24.43;;;2.60;96.20;;;;;;5023223;28;20665;-70
2021/12/20 09:59:24;;;;;;;87.23;25.27;;;2.70;96.20;;;;;;5031326;28;20656;-71
2021/12/20 10:01:53;;;;;;;105.33;25.43;;;2.80;96.30;;;;;;5014395;28;20236;-70
2021/12/20 10:04:22;;;;;;;86.70;24.03;;;2.90;96.30;;;;;;5016859;28;20708;-70
2021/12/20 10:06:54;;;;;;;77.73;26.17;;;3.00;96.30;;;;;;5032550;28;20637;-70
2021/12/20 10:09:27;;;;;;;131.53;27.50;;;3.00;96.30;;;;;;5023310;28;20242;-68
2021/12/20 10:12:16;;;;;;;114.00;28.70;;;3.10;96.30;;;;;;5039045;28;20203;-68
2021/12/20 10:15:06;;;;;;;110.47;28.83;;;3.20;96.40;;;;;;5020924;28;20217;-68
2021/12/20 10:17:59;;;;;;;162.60;31.23;;;3.20;96.50;;;;;;5026807;28;20485;-68
2021/12/20 10:20:28;;;;;;;129.20;31.00;;;3.30;96.50;;;;;;5048204;28;20216;-68
2021/12/20 10:23:15;;;;;;;112.93;29.80;;;3.30;96.80;;;;;;5028555;28;20252;-68
2021/12/20 10:25:44;;;;;;;122.07;30.80;;;3.30;96.70;;;;;;5030788;28;20285;-69
2021/12/20 10:28:15;;;;;;;154.93;35.77;;;3.40;96.70;;;;;;5027557;28;20226;-68
2021/12/20 10:30:47;;;;;;;131.97;33.87;;;3.50;96.80;;;;;;5044969;28;20208;-68
2021/12/20 10:33:18;;;;;;;127.67;34.73;;;3.60;96.90;;;;;;5029811;28;20224;-68
2021/12/20 10:35:49;;;;;;;153.17;34.93;;;3.70;97.00;;;;;;5023907;28;20208;-68
2021/12/20 10:38:21;;;;;;;139.33;34.70;;;3.80;96.90;;;;;;5021420;28;20264;-69
2021/12/20 10:40:58;;;;;;;201.10;39.37;;;3.80;96.80;;;;;;5038200;28;20212;-68
2021/12/20 10:43:35;;;;;;;141.37;33.03;;;3.90;96.70;;;;;;5019049;28;20211;-68
2021/12/20 10:46:13;;;;;;;156.13;32.07;;;4.00;96.60;;;;;;5039973;28;20209;-68
2021/12/20 10:48:45;;;;;;;143.87;34.90;;;4.00;96.20;;;;;;5025894;28;20687;-68
2021/12/20 10:51:26;;;;;;;172.23;31.67;;;3.90;96.00;;;;;;5020163;28;20614;-68
2021/12/20 10:54:01;;;;;;;219.87;34.47;;;3.90;95.90;;;;;;5029815;28;20216;-68
2021/12/20 10:56:32;;;;;;;192.77;32.17;;;3.90;95.80;;;;;;5026637;28;20210;-69
2021/12/20 10:59:01;;;;;;;198.37;35.83;;;3.90;95.90;;;;;;5036437;28;20644;-68
2021/12/20 11:04:14;;;;;;;162.90;32.47;;;3.80;95.80;;;;;;5028963;28;20240;-68
2021/12/20 11:09:18;;;;;;;128.37;28.83;;;3.70;96.00;;;;;;5022290;28;20673;-68
2021/12/20 11:11:46;;;;;;;131.57;27.57;;;3.70;96.20;;;;;;5021901;28;20524;-68
2021/12/20 11:14:15;;;;;;;144.23;30.30;;;3.70;96.20;;;;;;5032768;28;20208;-68
2021/12/20 11:16:53;;;;;;;144.50;28.63;;;3.70;96.20;;;;;;5022700;28;20300;-68
2021/12/20 11:19:40;;;;;;;97.33;26.33;;;3.70;96.30;;;;;;5039360;28;20232;-68
2021/12/20 11:22:14;;;;;;;142.37;29.47;;;3.70;96.60;;;;;;5030504;28;20212;-68
2021/12/20 11:24:51;;;;;;;139.00;28.47;;;3.70;96.40;;;;;;5032019;28;20637;-68
2021/12/20 11:27:34;;;;;;;143.63;27.27;;;3.70;96.40;;;;;;5021601;28;20654;-68
2021/12/20 11:30:12;;;;;;;94.53;24.80;;;3.80;96.40;;;;;;5021313;28;20201;-69
2021/12/20 11:32:40;;;;;;;100.73;25.27;;;3.80;96.30;;;;;;5028575;28;20584;-68
2021/12/20 11:35:16;;;;;;;104.20;26.63;;;3.80;96.30;;;;;;5017290;28;20209;-68
2021/12/20 11:37:44;;;;;;;101.47;26.40;;;3.80;96.30;;;;;;5037418;28;20649;-69
2021/12/20 11:40:15;;;;;;;106.87;27.93;;;3.80;96.30;;;;;;5024710;28;20214;-68
2021/12/20 11:42:43;;;;;;;102.47;26.70;;;3.80;96.40;;;;;;5018714;28;20646;-68
2021/12/20 11:45:15;;;;;;;122.47;27.77;;;3.80;96.50;;;;;;5016316;28;20222;-68
2021/12/20 11:47:56;;;;;;;114.00;31.60;;;3.80;96.50;;;;;;5024687;28;20240;-68
2021/12/20 11:50:35;;;;;;;112.67;28.30;;;3.80;96.50;;;;;;5025557;28;20215;-68
2021/12/20 11:53:08;;;;;;;119.30;28.87;;;3.80;96.50;;;;;;5018216;28;20213;-68
2021/12/20 11:55:39;;;;;;;103.80;29.90;;;3.80;96.60;;;;;;5033182;28;20213;-68
2021/12/20 11:58:22;;;;;;;123.93;30.37;;;3.80;96.50;;;;;;5021655;28;20221;-68
2021/12/20 12:01:01;;;;;;;99.73;27.27;;;3.80;96.50;;;;;;5020386;28;20217;-68
2021/12/20 12:03:31;;;;;;;100.00;27.73;;;3.80;96.60;;;;;;5017264;28;20628;-68
2021/12/20 12:06:05;;;;;;;101.20;29.13;;;3.80;96.70;;;;;;5015944;28;20648;-68
2021/12/20 12:08:55;;;;;;;103.77;27.57;;;3.80;96.70;;;;;;5024004;28;20667;-68
2021/12/20 12:11:23;;;;;;;95.63;27.80;;;3.80;96.60;;;;;;5021287;28;20278;-68
2021/12/20 12:14:05;;;;;;;113.83;28.37;;;3.90;96.60;;;;;;5014451;28;20485;-68
2021/12/20 12:17:04;;;;;;;97.03;26.20;;;3.90;96.70;;;;;;5016096;28;20208;-68
2021/12/20 12:19:54;;;;;;;101.67;28.07;;;3.90;96.60;;;;;;5015574;28;20226;-68
2021/12/20 12:22:40;;;;;;;100.27;27.60;;;4.00;96.70;;;;;;5017033;28;20694;-68
2021/12/20 12:25:15;;;;;;;112.40;26.33;;;4.00;96.60;;;;;;5024926;28;20295;-68
2021/12/20 12:27:44;;;;;;;124.37;27.90;;;4.00;96.70;;;;;;5029058;28;20298;-68
2021/12/20 12:30:11;;;;;;;108.73;28.40;;;4.10;96.70;;;;;;5044514;28;20726;-68
2021/12/20 12:33:01;;;;;;;109.60;27.33;;;4.10;96.70;;;;;;5028839;28;20232;-69
2021/12/20 12:35:37;;;;;;;114.03;27.40;;;4.20;96.80;;;;;;5029362;28;20232;-69
2021/12/20 12:38:18;;;;;;;106.93;26.93;;;4.20;96.70;;;;;;5023702;28;20221;-69
2021/12/20 12:40:51;;;;;;;207.17;29.97;;;4.20;96.60;;;;;;5039662;28;20213;-69
2021/12/20 12:43:26;;;;;;;132.13;29.57;;;4.30;96.60;;;;;;5026117;28;20202;-69
2021/12/20 12:45:56;;;;;;;156.00;30.10;;;4.30;96.60;;;;;;5021993;28;20668;-69
2021/12/20 12:48:38;;;;;;;141.60;31.33;;;4.30;96.50;;;;;;5030634;28;20517;-68
2021/12/20 12:51:06;;;;;;;146.03;28.43;;;4.30;96.40;;;;;;5029232;28;20213;-68
2021/12/20 12:53:44;;;;;;;251.50;31.30;;;4.30;96.40;;;;;;5029446;28;20493;-68
2021/12/20 12:56:26;;;;;;;139.50;27.13;;;4.30;96.40;;;;;;5024330;28;20217;-69
2021/12/20 12:59:26;;;;;;;125.00;26.57;;;4.30;96.40;;;;;;5029200;28;20223;-68
2021/12/20 13:01:58;;;;;;;166.77;29.83;;;4.30;96.50;;;;;;4984775;28;20672;-68
2021/12/20 13:04:46;;;;;;;213.93;33.07;;;4.30;96.50;;;;;;5024868;28;20242;-68
2021/12/20 13:07:22;;;;;;;213.23;32.10;;;4.40;96.50;;;;;;5022782;28;20222;-68